Time;durP1;ratioP1;P1;durP2;ratioP2;P2;SDS_P1;SDS_P2;PMS_P1;PMS_P2;Temp;Humidity;BMP_temperature;BMP_pressure;BME280_temperature;BME280_humidity;BME280_pressure;Samples;Min_cycle;Max_cycle;Signal;HPM_P1;HPM_P2
2022/09/24 00:05:00;;;;;;;6.15;3.22;;;13.70;99.90;;;;;;20962689;28;20036;-39
2022/09/24 00:15:02;;;;;;;6.70;3.22;;;13.70;99.90;;;;;;20954439;28;20059;-39
2022/09/24 00:35:24;;;;;;;4.32;2.65;;;13.70;99.90;;;;;;20956810;28;21836;-39
2022/09/24 00:45:28;;;;;;;8.93;4.60;;;13.70;99.90;;;;;;20948149;28;20078;-39
2022/09/24 00:55:32;;;;;;;7.07;4.55;;;13.60;99.90;;;;;;20946799;28;20125;-38
2022/09/24 01:05:35;;;;;;;10.75;6.65;;;13.60;99.90;;;;;;20946070;28;20174;-39
2022/09/24 01:15:47;;;;;;;9.50;4.65;;;13.70;99.90;;;;;;20946555;28;20120;-39
2022/09/24 01:26:07;;;;;;;12.25;6.03;;;13.60;99.90;;;;;;20947427;28;20117;-39
2022/09/24 01:36:08;;;;;;;10.90;5.97;;;13.60;99.90;;;;;;20947933;28;20113;-39
2022/09/24 01:46:11;;;;;;;9.90;6.15;;;13.60;99.90;;;;;;20950623;28;20075;-39
2022/09/24 01:56:19;;;;;;;17.23;7.95;;;13.50;99.90;;;;;;20944980;28;20129;-39
2022/09/24 02:06:23;;;;;;;;;;;13.50;99.90;;;;;;20951556;28;20075;-38
2022/09/24 02:16:29;;;;;;;12.35;7.18;;;13.40;99.90;;;;;;20947513;28;20451;-38
2022/09/24 02:26:30;;;;;;;12.48;6.72;;;13.40;99.90;;;;;;20947783;28;20132;-38
2022/09/24 02:36:32;;;;;;;11.75;7.13;;;13.40;99.90;;;;;;20959818;28;20130;-38
2022/09/24 02:46:33;;;;;;;12.40;5.95;;;13.40;99.90;;;;;;20969399;28;20141;-39
2022/09/24 02:56:34;;;;;;;14.00;7.60;;;13.40;99.90;;;;;;20956098;28;20125;-38
2022/09/24 03:06:35;;;;;;;10.05;5.10;;;13.30;99.90;;;;;;20955667;28;20114;-38
2022/09/24 03:16:36;;;;;;;13.02;6.68;;;13.30;99.90;;;;;;20963807;28;20075;-38
2022/09/24 03:26:37;;;;;;;9.88;5.88;;;13.20;99.90;;;;;;20957953;28;20028;-38
2022/09/24 03:36:38;;;;;;;10.48;6.97;;;13.20;99.90;;;;;;20958537;28;20093;-38
2022/09/24 03:46:39;;;;;;;16.83;7.88;;;13.20;99.90;;;;;;20956578;28;20158;-38
2022/09/24 03:56:41;;;;;;;12.70;6.82;;;13.20;99.90;;;;;;20956350;28;20150;-39
2022/09/24 04:06:43;;;;;;;11.15;7.43;;;13.20;99.90;;;;;;20953140;28;20843;-39
2022/09/24 04:16:44;;;;;;;15.73;10.15;;;13.10;99.90;;;;;;20957598;28;20097;-39
2022/09/24 04:26:45;;;;;;;14.65;8.13;;;13.10;99.90;;;;;;20955870;28;20082;-39
2022/09/24 04:36:46;;;;;;;13.60;6.80;;;13.10;99.90;;;;;;20955817;28;20203;-39
2022/09/24 04:46:48;;;;;;;13.85;7.35;;;13.10;99.90;;;;;;20969893;28;20059;-39
2022/09/24 04:56:49;;;;;;;10.73;6.45;;;13.10;99.90;;;;;;20947905;28;20124;-39
2022/09/24 05:06:50;;;;;;;13.05;7.07;;;13.10;99.90;;;;;;20947870;28;20032;-39
2022/09/24 05:16:51;;;;;;;14.70;8.90;;;13.00;99.90;;;;;;20949729;28;20132;-39
2022/09/24 05:37:23;;;;;;;8.05;6.13;;;13.10;99.90;;;;;;20935883;28;20048;-39
2022/09/24 05:47:24;;;;;;;9.20;5.57;;;13.10;99.90;;;;;;20956253;28;20036;-40
2022/09/24 05:57:25;;;;;;;9.23;6.18;;;13.10;99.90;;;;;;20951150;28;20138;-39
2022/09/24 06:07:26;;;;;;;9.32;5.63;;;13.10;99.90;;;;;;20967755;28;20043;-39
2022/09/24 06:17:27;;;;;;;10.88;6.68;;;13.10;99.90;;;;;;20967886;28;20040;-39
2022/09/24 06:27:28;;;;;;;8.57;5.60;;;13.20;99.90;;;;;;20958937;28;20029;-40
2022/09/24 06:37:29;;;;;;;6.82;4.35;;;13.20;99.90;;;;;;20963582;28;20028;-39
2022/09/24 06:47:30;;;;;;;6.40;3.67;;;13.30;99.90;;;;;;20968293;28;20434;-39
2022/09/24 06:57:31;;;;;;;6.95;4.45;;;13.30;99.90;;;;;;20962173;28;20385;-39
2022/09/24 07:07:33;;;;;;;6.60;3.50;;;13.40;99.90;;;;;;20948828;28;20306;-40
2022/09/24 07:17:34;;;;;;;8.27;4.25;;;13.40;99.90;;;;;;20959516;28;20214;-39
2022/09/24 07:27:36;;;;;;;8.77;5.07;;;13.40;99.90;;;;;;20974016;28;20094;-39
2022/09/24 07:37:36;;;;;;;11.65;5.05;;;13.50;99.90;;;;;;20960809;28;20114;-40
2022/09/24 07:47:38;;;;;;;7.85;4.65;;;13.50;99.90;;;;;;20940593;28;20243;-39
2022/09/24 07:57:44;;;;;;;7.88;4.28;;;13.50;99.90;;;;;;20956518;28;20059;-39
2022/09/24 08:07:54;;;;;;;7.72;3.78;;;13.50;99.90;;;;;;20907433;28;20044;-40
2022/09/24 08:18:02;;;;;;;6.43;3.35;;;13.50;99.90;;;;;;20950661;28;20066;-39
2022/09/24 08:28:07;;;;;;;5.70;2.63;;;13.50;99.90;;;;;;20943856;28;20037;-39
2022/09/24 08:38:08;;;;;;;6.88;1.67;;;13.50;99.90;;;;;;20947747;28;20739;-39
2022/09/24 08:48:14;;;;;;;3.65;1.40;;;13.70;99.90;;;;;;20916988;28;20048;-39
2022/09/24 08:58:30;;;;;;;3.08;1.20;;;13.80;99.90;;;;;;20949660;28;20072;-39
2022/09/24 09:08:46;;;;;;;1.45;0.35;;;13.80;99.90;;;;;;20954715;28;21613;-39
2022/09/24 09:18:49;;;;;;;4.97;1.73;;;13.70;99.90;;;;;;20948387;28;20121;-38
2022/09/24 09:28:50;;;;;;;4.28;1.00;;;13.60;99.90;;;;;;20957896;28;20125;-38
2022/09/24 09:39:11;;;;;;;1.75;0.52;;;13.60;99.90;;;;;;20929455;28;20283;-38
2022/09/24 09:49:13;;;;;;;2.10;0.50;;;13.60;99.90;;;;;;20933983;28;20052;-39
2022/09/24 09:59:20;;;;;;;2.60;0.40;;;13.70;99.90;;;;;;20946831;28;20568;-38
2022/09/24 10:09:21;;;;;;;2.10;0.73;;;13.70;99.90;;;;;;20944216;28;20076;-38
2022/09/24 10:19:25;;;;;;;1.63;0.50;;;13.70;99.90;;;;;;20940359;28;20040;-38
2022/09/24 10:40:02;;;;;;;2.72;0.95;;;13.70;99.90;;;;;;20967351;28;20028;-39
2022/09/24 10:50:12;;;;;;;1.58;0.47;;;13.70;99.90;;;;;;20977679;28;20079;-39
2022/09/24 11:00:19;;;;;;;1.10;0.47;;;13.80;99.90;;;;;;20987429;28;20414;-39
2022/09/24 11:10:32;;;;;;;1.85;0.60;;;13.90;99.90;;;;;;20987618;28;20063;-39
2022/09/24 11:20:37;;;;;;;2.78;1.25;;;13.90;99.90;;;;;;20986285;28;20579;-39
2022/09/24 11:30:57;;;;;;;2.40;1.00;;;14.00;99.90;;;;;;20980932;28;20040;-39
2022/09/24 11:41:22;;;;;;;4.55;1.10;;;14.10;99.90;;;;;;20980244;28;20406;-38
2022/09/24 11:51:44;;;;;;;1.63;0.80;;;14.20;99.90;;;;;;20995919;28;20430;-38
2022/09/24 12:01:51;;;;;;;4.15;0.63;;;14.10;99.90;;;;;;20988034;28;20872;-38
2022/09/24 12:11:54;;;;;;;3.37;0.83;;;14.10;99.90;;;;;;20976226;28;20106;-38
2022/09/24 12:21:57;;;;;;;6.38;1.77;;;14.10;99.90;;;;;;20963044;28;22033;-38
2022/09/24 12:42:32;;;;;;;2.92;0.47;;;14.30;99.90;;;;;;20948001;28;20762;-37
2022/09/24 12:52:40;;;;;;;2.17;0.70;;;14.30;99.90;;;;;;20950421;28;20121;-37
2022/09/24 13:02:45;;;;;;;;;;;14.40;99.90;;;;;;20940691;28;20082;-37
2022/09/24 13:12:46;;;;;;;1.17;0.40;;;14.40;99.90;;;;;;20958762;28;19928;-37
2022/09/24 13:23:16;;;;;;;1.77;0.52;;;14.50;99.90;;;;;;20950208;28;20036;-37
2022/09/24 13:33:32;;;;;;;1.70;0.63;;;14.30;99.90;;;;;;20933855;28;20312;-37
2022/09/24 13:43:51;;;;;;;1.38;0.75;;;14.40;99.90;;;;;;20945022;28;20852;-38
2022/09/24 13:54:11;;;;;;;1.35;0.30;;;14.30;99.90;;;;;;20958930;28;20581;-38
2022/09/24 14:04:15;;;;;;;1.90;0.47;;;14.30;99.90;;;;;;20945356;28;20129;-38
2022/09/24 14:14:20;;;;;;;2.40;1.05;;;14.20;99.90;;;;;;20960131;28;20506;-38
2022/09/24 14:24:26;;;;;;;3.42;0.65;;;14.30;99.90;;;;;;20954450;28;20233;-38
2022/09/24 14:34:36;;;;;;;3.60;0.93;;;14.40;99.90;;;;;;20968046;28;20907;-38
2022/09/24 14:44:39;;;;;;;0.90;0.40;;;14.50;99.90;;;;;;20962792;28;20089;-38
2022/09/24 14:54:40;;;;;;;3.00;0.50;;;14.50;99.90;;;;;;20962172;28;20124;-38
2022/09/24 15:04:45;;;;;;;0.80;0.30;;;14.60;99.90;;;;;;20957730;28;20059;-38
2022/09/24 15:15:00;;;;;;;1.77;0.57;;;14.60;99.90;;;;;;20960062;28;20072;-38
2022/09/24 15:25:01;;;;;;;1.35;0.40;;;14.70;99.90;;;;;;20965729;28;20373;-38
2022/09/24 15:35:07;;;;;;;3.42;0.75;;;14.70;99.90;;;;;;20982813;28;20044;-38
2022/09/24 15:45:20;;;;;;;1.05;0.30;;;14.70;99.90;;;;;;20976459;28;20110;-38
2022/09/24 15:55:22;;;;;;;2.38;0.40;;;14.80;99.90;;;;;;20958822;28;20795;-38
2022/09/24 16:05:24;;;;;;;1.05;0.30;;;14.80;99.90;;;;;;20966604;28;20093;-38
2022/09/24 16:15:25;;;;;;;3.80;0.70;;;14.70;99.90;;;;;;20970825;28;21158;-38
2022/09/24 16:25:26;;;;;;;0.85;0.30;;;14.80;99.90;;;;;;20972540;28;20043;-38
2022/09/24 16:35:28;;;;;;;3.35;1.30;;;14.80;99.90;;;;;;20965817;28;20044;-38
2022/09/24 16:45:30;;;;;;;0.95;0.35;;;14.70;99.90;;;;;;20971799;28;20500;-38
2022/09/24 16:55:31;;;;;;;3.60;0.40;;;14.60;99.90;;;;;;20955568;28;20079;-38
2022/09/24 17:05:36;;;;;;;1.65;0.45;;;14.50;99.90;;;;;;20967591;28;20464;-38
2022/09/24 17:15:37;;;;;;;1.52;0.32;;;14.30;99.90;;;;;;20959019;28;20414;-38
2022/09/24 17:25:38;;;;;;;0.82;0.47;;;14.20;99.90;;;;;;20957657;28;20040;-38
2022/09/24 17:35:39;;;;;;;0.73;0.35;;;14.20;99.90;;;;;;20953760;28;20040;-38
2022/09/24 17:45:40;;;;;;;2.13;0.57;;;14.10;99.90;;;;;;20952247;28;20040;-38
2022/09/24 17:55:48;;;;;;;8.05;1.30;;;14.10;99.90;;;;;;20940065;28;20118;-38
2022/09/24 18:05:49;;;;;;;1.95;0.28;;;14.20;99.90;;;;;;20954351;28;20113;-38
2022/09/24 18:15:51;;;;;;;1.65;0.38;;;14.00;99.90;;;;;;20968227;28;20036;-38
2022/09/24 18:25:52;;;;;;;1.33;0.47;;;13.90;99.90;;;;;;20972858;28;20129;-38
2022/09/24 18:35:53;;;;;;;1.13;0.45;;;13.80;99.90;;;;;;20969704;28;20041;-38
2022/09/24 18:45:54;;;;;;;1.52;0.52;;;13.70;99.90;;;;;;20968696;28;20040;-38
2022/09/24 18:55:55;;;;;;;2.92;0.57;;;13.70;99.90;;;;;;20965090;28;20391;-38
2022/09/24 19:06:01;;;;;;;1.25;0.40;;;13.60;99.90;;;;;;20961686;28;20047;-38
2022/09/24 19:16:07;;;;;;;3.17;1.23;;;13.50;99.90;;;;;;20984549;28;20045;-38
2022/09/24 19:26:10;;;;;;;1.20;0.47;;;13.50;99.90;;;;;;20978232;28;20059;-38
2022/09/24 19:36:12;;;;;;;1.15;0.20;;;13.30;99.90;;;;;;20976177;28;20434;-38
2022/09/24 19:46:15;;;;;;;1.20;0.30;;;13.20;99.90;;;;;;20977384;28;20864;-38
2022/09/24 19:56:18;;;;;;;1.15;0.20;;;13.10;99.90;;;;;;20979917;28;20731;-38
2022/09/24 20:06:21;;;;;;;2.55;0.93;;;13.00;99.90;;;;;;20969327;28;20089;-38
2022/09/24 20:16:28;;;;;;;1.00;0.40;;;12.90;99.90;;;;;;20979606;28;20553;-39
2022/09/24 20:36:49;;;;;;;0.77;0.30;;;12.70;99.90;;;;;;20975009;28;20032;-38
2022/09/24 20:46:50;;;;;;;2.75;0.68;;;12.60;99.90;;;;;;20976975;28;20109;-38
2022/09/24 20:56:51;;;;;;;2.28;0.80;;;12.50;99.90;;;;;;20968630;28;20052;-38
2022/09/24 21:06:53;;;;;;;4.40;1.65;;;12.30;99.90;;;;;;20973793;28;20039;-38
2022/09/24 21:16:55;;;;;;;2.22;1.00;;;12.10;99.90;;;;;;20962103;28;20440;-38
2022/09/24 21:26:57;;;;;;;3.85;1.20;;;11.90;99.90;;;;;;20968358;28;20032;-38
2022/09/24 21:36:58;;;;;;;1.17;0.30;;;11.70;99.90;;;;;;20969114;28;20028;-40
2022/09/24 21:47:00;;;;;;;0.82;0.52;;;11.60;99.90;;;;;;20965734;28;20040;-40
2022/09/24 21:57:01;;;;;;;1.42;0.40;;;11.50;99.90;;;;;;20974393;28;20071;-40
2022/09/24 22:07:02;;;;;;;2.22;0.50;;;11.50;99.90;;;;;;20976310;28;20237;-40
2022/09/24 22:17:04;;;;;;;1.38;0.57;;;11.40;99.90;;;;;;20956823;28;20032;-40
2022/09/24 22:27:05;;;;;;;1.75;0.82;;;11.30;99.90;;;;;;20962335;28;20040;-40
2022/09/24 22:37:06;;;;;;;1.08;0.43;;;11.20;99.90;;;;;;20962376;28;20040;-40
2022/09/24 22:47:07;;;;;;;2.63;1.05;;;11.00;99.90;;;;;;20971572;28;20086;-40
2022/09/24 22:57:08;;;;;;;1.38;0.50;;;10.90;99.90;;;;;;20987212;28;20055;-40
2022/09/24 23:07:09;;;;;;;1.90;0.93;;;10.80;99.90;;;;;;20982215;28;20040;-40
2022/09/24 23:17:10;;;;;;;1.50;0.60;;;10.80;99.90;;;;;;20957877;28;20044;-39
2022/09/24 23:27:15;;;;;;;2.40;1.55;;;10.70;99.90;;;;;;20987575;28;20040;-40
2022/09/24 23:37:16;;;;;;;1.60;0.45;;;10.50;99.90;;;;;;20981188;28;20764;-40
2022/09/24 23:47:17;;;;;;;1.40;0.68;;;10.50;99.90;;;;;;20963611;28;20481;-40
2022/09/24 23:57:18;;;;;;;2.10;1.02;;;10.40;99.90;;;;;;20961130;28;20385;-40
